sensor_id;sensor_type;location;lat;lon;timestamp;pressure;altitude;pressure_sealevel;temperature;humidity
8575;BME280;4325;42.520;27.448;2023-04-24T00:01:24;101069.91;;;9.31;100.00
8575;BME280;4325;42.520;27.448;2023-04-24T00:03:51;101072.22;;;9.22;100.00
8575;BME280;4325;42.520;27.448;2023-04-24T00:06:20;101061.94;;;9.08;100.00
8575;BME280;4325;42.520;27.448;2023-04-24T00:08:49;101066.59;;;9.07;100.00
8575;BME280;4325;42.520;27.448;2023-04-24T00:11:15;101058.16;;;9.09;100.00
8575;BME280;4325;42.520;27.448;2023-04-24T00:13:42;101056.31;;;9.14;100.00
8575;BME280;4325;42.520;27.448;2023-04-24T00:16:09;101061.84;;;9.19;100.00
8575;BME280;4325;42.520;27.448;2023-04-24T00:18:36;101068.06;;;9.15;100.00
8575;BME280;4325;42.520;27.448;2023-04-24T00:21:03;101065.22;;;9.05;100.00
8575;BME280;4325;42.520;27.448;2023-04-24T00:23:31;101060.94;;;8.92;100.00
8575;BME280;4325;42.520;27.448;2023-04-24T00:25:58;101072.84;;;8.86;100.00
8575;BME280;4325;42.520;27.448;2023-04-24T00:28:25;101077.09;;;8.77;100.00
8575;BME280;4325;42.520;27.448;2023-04-24T00:30:52;101071.00;;;8.70;100.00
8575;BME280;4325;42.520;27.448;2023-04-24T00:33:19;101074.72;;;8.64;100.00
8575;BME280;4325;42.520;27.448;2023-04-24T00:35:45;101061.03;;;8.59;100.00
8575;BME280;4325;42.520;27.448;2023-04-24T00:38:12;101071.34;;;8.57;100.00
8575;BME280;4325;42.520;27.448;2023-04-24T00:40:41;101066.63;;;8.52;100.00
8575;BME280;4325;42.520;27.448;2023-04-24T00:43:07;101067.66;;;8.46;100.00
8575;BME280;4325;42.520;27.448;2023-04-24T00:45:35;101055.81;;;8.41;100.00
8575;BME280;4325;42.520;27.448;2023-04-24T00:48:02;101051.94;;;8.37;100.00
8575;BME280;4325;42.520;27.448;2023-04-24T00:50:30;101059.88;;;8.38;100.00
8575;BME280;4325;42.520;27.448;2023-04-24T00:52:57;101063.34;;;8.34;100.00
8575;BME280;4325;42.520;27.448;2023-04-24T00:55:24;101062.22;;;8.30;100.00
8575;BME280;4325;42.520;27.448;2023-04-24T00:57:53;101055.09;;;8.29;100.00
8575;BME280;4325;42.520;27.448;2023-04-24T01:00:20;101055.53;;;8.26;100.00
8575;BME280;4325;42.520;27.448;2023-04-24T01:02:48;101054.72;;;8.25;100.00
8575;BME280;4325;42.520;27.448;2023-04-24T01:05:17;101056.50;;;8.31;100.00
8575;BME280;4325;42.520;27.448;2023-04-24T01:07:45;101062.25;;;8.35;100.00
8575;BME280;4325;42.520;27.448;2023-04-24T01:10:14;101060.13;;;8.37;100.00
8575;BME280;4325;42.520;27.448;2023-04-24T01:12:43;101058.66;;;8.29;100.00
8575;BME280;4325;42.520;27.448;2023-04-24T01:15:11;101073.13;;;8.30;100.00
8575;BME280;4325;42.520;27.448;2023-04-24T01:17:39;101064.81;;;8.25;100.00
8575;BME280;4325;42.520;27.448;2023-04-24T01:20:07;101064.13;;;8.18;100.00
8575;BME280;4325;42.520;27.448;2023-04-24T01:22:36;101065.31;;;8.22;100.00
8575;BME280;4325;42.520;27.448;2023-04-24T01:25:04;101064.66;;;8.15;100.00
8575;BME280;4325;42.520;27.448;2023-04-24T01:27:31;101066.81;;;8.13;100.00
8575;BME280;4325;42.520;27.448;2023-04-24T01:29:58;101066.94;;;8.06;100.00
8575;BME280;4325;42.520;27.448;2023-04-24T01:32:26;101063.81;;;7.97;100.00
8575;BME280;4325;42.520;27.448;2023-04-24T01:34:53;101053.56;;;7.88;100.00
8575;BME280;4325;42.520;27.448;2023-04-24T01:37:20;101055.94;;;7.84;100.00
8575;BME280;4325;42.520;27.448;2023-04-24T01:39:49;101051.81;;;7.82;100.00
8575;BME280;4325;42.520;27.448;2023-04-24T01:42:16;101047.09;;;7.77;100.00
8575;BME280;4325;42.520;27.448;2023-04-24T01:44:43;101041.66;;;7.77;100.00
8575;BME280;4325;42.520;27.448;2023-04-24T01:47:10;101041.72;;;7.82;100.00
8575;BME280;4325;42.520;27.448;2023-04-24T01:49:38;101045.59;;;7.86;100.00
8575;BME280;4325;42.520;27.448;2023-04-24T01:52:05;101033.97;;;7.91;100.00
8575;BME280;4325;42.520;27.448;2023-04-24T01:54:32;101028.44;;;7.86;100.00
8575;BME280;4325;42.520;27.448;2023-04-24T01:57:00;101033.66;;;7.87;100.00
8575;BME280;4325;42.520;27.448;2023-04-24T01:59:28;101034.63;;;7.81;100.00
8575;BME280;4325;42.520;27.448;2023-04-24T02:01:55;101032.16;;;7.80;100.00
8575;BME280;4325;42.520;27.448;2023-04-24T02:04:21;101035.34;;;7.77;100.00
8575;BME280;4325;42.520;27.448;2023-04-24T02:06:48;101034.03;;;7.79;100.00
8575;BME280;4325;42.520;27.448;2023-04-24T02:09:15;101029.91;;;7.77;100.00
8575;BME280;4325;42.520;27.448;2023-04-24T02:11:42;101033.38;;;7.72;100.00
8575;BME280;4325;42.520;27.448;2023-04-24T02:14:10;101030.06;;;7.70;100.00
8575;BME280;4325;42.520;27.448;2023-04-24T02:16:37;101033.72;;;7.76;100.00
8575;BME280;4325;42.520;27.448;2023-04-24T02:19:04;101038.84;;;7.89;100.00
8575;BME280;4325;42.520;27.448;2023-04-24T02:21:31;101035.47;;;7.98;100.00
8575;BME280;4325;42.520;27.448;2023-04-24T02:23:58;101044.38;;;8.11;100.00
8575;BME280;4325;42.520;27.448;2023-04-24T02:26:25;101041.81;;;8.21;100.00
8575;BME280;4325;42.520;27.448;2023-04-24T02:28:51;101038.03;;;8.22;100.00
8575;BME280;4325;42.520;27.448;2023-04-24T02:31:20;101041.06;;;8.25;100.00
8575;BME280;4325;42.520;27.448;2023-04-24T02:33:47;101030.16;;;8.25;100.00
8575;BME280;4325;42.520;27.448;2023-04-24T02:36:13;101019.16;;;8.20;100.00
8575;BME280;4325;42.520;27.448;2023-04-24T02:38:40;101026.28;;;8.21;100.00
8575;BME280;4325;42.520;27.448;2023-04-24T02:41:07;101024.81;;;8.14;100.00
8575;BME280;4325;42.520;27.448;2023-04-24T02:43:34;101030.19;;;8.09;100.00
8575;BME280;4325;42.520;27.448;2023-04-24T02:46:01;101032.66;;;7.93;100.00
8575;BME280;4325;42.520;27.448;2023-04-24T02:48:30;101027.53;;;7.80;100.00
8575;BME280;4325;42.520;27.448;2023-04-24T02:50:57;101024.63;;;7.70;100.00
8575;BME280;4325;42.520;27.448;2023-04-24T02:53:24;101022.97;;;7.69;100.00
8575;BME280;4325;42.520;27.448;2023-04-24T02:55:50;101017.28;;;7.87;100.00
8575;BME280;4325;42.520;27.448;2023-04-24T02:58:17;101019.34;;;7.97;100.00
8575;BME280;4325;42.520;27.448;2023-04-24T03:00:45;101014.66;;;7.92;100.00
8575;BME280;4325;42.520;27.448;2023-04-24T03:03:12;101018.88;;;7.83;100.00
8575;BME280;4325;42.520;27.448;2023-04-24T03:05:40;101020.41;;;7.79;100.00
8575;BME280;4325;42.520;27.448;2023-04-24T03:08:07;101025.94;;;7.84;100.00
8575;BME280;4325;42.520;27.448;2023-04-24T03:10:34;101024.63;;;7.87;100.00
8575;BME280;4325;42.520;27.448;2023-04-24T03:13:01;101033.06;;;7.85;100.00
8575;BME280;4325;42.520;27.448;2023-04-24T03:15:27;101031.56;;;7.78;100.00
8575;BME280;4325;42.520;27.448;2023-04-24T03:17:54;101042.13;;;7.74;100.00
8575;BME280;4325;42.520;27.448;2023-04-24T03:20:21;101044.75;;;7.69;100.00
8575;BME280;4325;42.520;27.448;2023-04-24T03:22:49;101038.81;;;7.72;100.00
8575;BME280;4325;42.520;27.448;2023-04-24T03:25:16;101035.34;;;7.77;100.00
8575;BME280;4325;42.520;27.448;2023-04-24T03:27:43;101043.31;;;7.78;100.00
8575;BME280;4325;42.520;27.448;2023-04-24T03:30:10;101039.28;;;7.81;100.00
8575;BME280;4325;42.520;27.448;2023-04-24T03:32:37;101038.44;;;7.80;100.00
8575;BME280;4325;42.520;27.448;2023-04-24T03:35:06;101034.72;;;7.86;100.00
8575;BME280;4325;42.520;27.448;2023-04-24T03:37:33;101036.19;;;7.94;100.00
8575;BME280;4325;42.520;27.448;2023-04-24T03:40:02;101043.63;;;7.98;100.00
8575;BME280;4325;42.520;27.448;2023-04-24T03:42:29;101054.72;;;8.09;100.00
8575;BME280;4325;42.520;27.448;2023-04-24T03:44:56;101055.91;;;8.13;100.00
8575;BME280;4325;42.520;27.448;2023-04-24T03:47:23;101048.28;;;8.15;100.00
8575;BME280;4325;42.520;27.448;2023-04-24T03:49:50;101047.09;;;8.11;100.00
8575;BME280;4325;42.520;27.448;2023-04-24T03:52:17;101039.59;;;8.18;100.00
8575;BME280;4325;42.520;27.448;2023-04-24T03:54:44;101038.34;;;8.25;100.00
8575;BME280;4325;42.520;27.448;2023-04-24T03:57:12;101050.28;;;8.36;100.00
8575;BME280;4325;42.520;27.448;2023-04-24T03:59:39;101045.47;;;8.43;100.00
8575;BME280;4325;42.520;27.448;2023-04-24T04:02:06;101045.16;;;8.56;100.00
8575;BME280;4325;42.520;27.448;2023-04-24T04:04:33;101044.47;;;8.66;100.00
8575;BME280;4325;42.520;27.448;2023-04-24T04:07:00;101045.94;;;8.73;100.00
8575;BME280;4325;42.520;27.448;2023-04-24T04:09:28;101039.44;;;8.79;100.00
8575;BME280;4325;42.520;27.448;2023-04-24T04:11:55;101045.56;;;8.86;100.00
8575;BME280;4325;42.520;27.448;2023-04-24T04:14:23;101032.53;;;8.93;100.00
8575;BME280;4325;42.520;27.448;2023-04-24T04:16:50;101049.06;;;9.03;100.00
8575;BME280;4325;42.520;27.448;2023-04-24T04:19:17;101045.31;;;9.09;100.00
8575;BME280;4325;42.520;27.448;2023-04-24T04:21:44;101047.41;;;9.24;100.00
8575;BME280;4325;42.520;27.448;2023-04-24T04:24:16;101036.34;;;9.36;100.00
8575;BME280;4325;42.520;27.448;2023-04-24T04:26:43;101055.31;;;9.47;100.00
8575;BME280;4325;42.520;27.448;2023-04-24T04:29:11;101053.41;;;9.48;100.00
8575;BME280;4325;42.520;27.448;2023-04-24T04:31:40;101069.31;;;9.51;100.00
8575;BME280;4325;42.520;27.448;2023-04-24T04:34:07;101056.19;;;9.53;100.00
8575;BME280;4325;42.520;27.448;2023-04-24T04:36:34;101063.97;;;9.61;100.00
8575;BME280;4325;42.520;27.448;2023-04-24T04:39:02;101056.09;;;9.69;100.00
8575;BME280;4325;42.520;27.448;2023-04-24T04:41:29;101057.88;;;9.80;100.00
8575;BME280;4325;42.520;27.448;2023-04-24T04:43:56;101051.97;;;9.93;100.00
8575;BME280;4325;42.520;27.448;2023-04-24T04:46:23;101060.81;;;10.06;100.00
8575;BME280;4325;42.520;27.448;2023-04-24T04:48:52;101053.63;;;10.21;100.00
8575;BME280;4325;42.520;27.448;2023-04-24T04:51:19;101064.09;;;10.34;100.00
8575;BME280;4325;42.520;27.448;2023-04-24T04:53:46;101064.72;;;10.41;100.00
8575;BME280;4325;42.520;27.448;2023-04-24T04:56:13;101068.06;;;10.48;100.00
8575;BME280;4325;42.520;27.448;2023-04-24T04:58:40;101060.72;;;10.59;100.00
8575;BME280;4325;42.520;27.448;2023-04-24T05:01:07;101066.56;;;10.73;100.00
8575;BME280;4325;42.520;27.448;2023-04-24T05:03:34;101056.50;;;10.88;100.00
8575;BME280;4325;42.520;27.448;2023-04-24T05:06:02;101061.25;;;11.03;100.00
8575;BME280;4325;42.520;27.448;2023-04-24T05:08:29;101061.88;;;11.20;100.00
8575;BME280;4325;42.520;27.448;2023-04-24T05:10:56;101061.66;;;11.32;100.00
8575;BME280;4325;42.520;27.448;2023-04-24T05:13:23;101064.72;;;11.45;100.00
8575;BME280;4325;42.520;27.448;2023-04-24T05:15:50;101056.00;;;11.58;100.00
8575;BME280;4325;42.520;27.448;2023-04-24T05:18:17;101065.09;;;11.74;100.00
8575;BME280;4325;42.520;27.448;2023-04-24T05:20:43;101065.97;;;11.89;100.00
8575;BME280;4325;42.520;27.448;2023-04-24T05:23:12;101069.81;;;12.04;100.00
8575;BME280;4325;42.520;27.448;2023-04-24T05:25:39;101066.22;;;11.93;100.00
8575;BME280;4325;42.520;27.448;2023-04-24T05:28:06;101080.72;;;11.78;100.00
8575;BME280;4325;42.520;27.448;2023-04-24T05:30:33;101068.59;;;11.59;100.00
8575;BME280;4325;42.520;27.448;2023-04-24T05:33:00;101066.38;;;11.56;100.00
8575;BME280;4325;42.520;27.448;2023-04-24T05:35:27;101060.91;;;11.56;100.00
8575;BME280;4325;42.520;27.448;2023-04-24T05:37:54;101056.53;;;11.60;100.00
8575;BME280;4325;42.520;27.448;2023-04-24T05:40:22;101054.34;;;11.62;100.00
8575;BME280;4325;42.520;27.448;2023-04-24T05:42:49;101056.84;;;11.69;100.00
8575;BME280;4325;42.520;27.448;2023-04-24T05:45:17;101050.53;;;11.73;100.00
8575;BME280;4325;42.520;27.448;2023-04-24T05:47:44;101050.84;;;11.77;100.00
8575;BME280;4325;42.520;27.448;2023-04-24T05:50:11;101050.06;;;11.97;100.00
8575;BME280;4325;42.520;27.448;2023-04-24T05:52:38;101052.25;;;12.15;100.00
8575;BME280;4325;42.520;27.448;2023-04-24T05:55:05;101055.28;;;12.33;100.00
8575;BME280;4325;42.520;27.448;2023-04-24T05:57:33;101048.13;;;12.47;100.00
8575;BME280;4325;42.520;27.448;2023-04-24T06:00:00;101056.06;;;12.64;100.00
8575;BME280;4325;42.520;27.448;2023-04-24T06:02:27;101046.69;;;12.75;100.00
8575;BME280;4325;42.520;27.448;2023-04-24T06:04:57;101053.25;;;12.89;100.00
8575;BME280;4325;42.520;27.448;2023-04-24T06:07:24;101043.84;;;13.00;100.00
8575;BME280;4325;42.520;27.448;2023-04-24T06:09:51;101048.28;;;13.06;100.00
8575;BME280;4325;42.520;27.448;2023-04-24T06:12:18;101053.75;;;13.16;100.00
8575;BME280;4325;42.520;27.448;2023-04-24T06:14:46;101036.09;;;13.28;100.00
8575;BME280;4325;42.520;27.448;2023-04-24T06:17:13;101046.72;;;13.44;100.00
8575;BME280;4325;42.520;27.448;2023-04-24T06:19:40;101041.97;;;13.60;100.00
8575;BME280;4325;42.520;27.448;2023-04-24T06:22:07;101039.19;;;13.65;100.00
8575;BME280;4325;42.520;27.448;2023-04-24T06:24:34;101049.00;;;13.81;100.00
8575;BME280;4325;42.520;27.448;2023-04-24T06:27:01;101047.81;;;13.92;100.00
8575;BME280;4325;42.520;27.448;2023-04-24T06:29:28;101047.16;;;14.05;100.00
8575;BME280;4325;42.520;27.448;2023-04-24T06:31:56;101049.28;;;14.18;100.00
8575;BME280;4325;42.520;27.448;2023-04-24T06:34:23;101040.31;;;14.36;100.00
8575;BME280;4325;42.520;27.448;2023-04-24T06:36:50;101039.31;;;14.56;100.00
8575;BME280;4325;42.520;27.448;2023-04-24T06:39:17;101047.44;;;14.71;100.00
8575;BME280;4325;42.520;27.448;2023-04-24T06:41:44;101049.56;;;14.79;100.00
8575;BME280;4325;42.520;27.448;2023-04-24T06:44:10;101059.13;;;14.87;100.00
8575;BME280;4325;42.520;27.448;2023-04-24T06:46:56;101054.72;;;14.86;100.00
8575;BME280;4325;42.520;27.448;2023-04-24T06:49:23;101054.13;;;14.89;100.00
8575;BME280;4325;42.520;27.448;2023-04-24T06:51:50;101053.19;;;14.98;100.00
8575;BME280;4325;42.520;27.448;2023-04-24T06:54:17;101055.53;;;15.10;100.00
8575;BME280;4325;42.520;27.448;2023-04-24T06:56:44;101043.75;;;15.28;100.00
8575;BME280;4325;42.520;27.448;2023-04-24T06:59:13;101047.47;;;15.37;100.00
8575;BME280;4325;42.520;27.448;2023-04-24T07:01:39;101052.91;;;15.47;100.00
8575;BME280;4325;42.520;27.448;2023-04-24T07:04:08;101054.97;;;15.55;100.00
8575;BME280;4325;42.520;27.448;2023-04-24T07:06:35;101057.91;;;15.64;100.00
8575;BME280;4325;42.520;27.448;2023-04-24T07:09:03;101058.03;;;15.72;100.00
8575;BME280;4325;42.520;27.448;2023-04-24T07:11:29;101057.38;;;15.80;100.00
8575;BME280;4325;42.520;27.448;2023-04-24T07:13:56;101049.53;;;15.88;100.00
8575;BME280;4325;42.520;27.448;2023-04-24T07:16:23;101055.50;;;15.95;100.00
8575;BME280;4325;42.520;27.448;2023-04-24T07:18:52;101055.44;;;16.00;100.00
8575;BME280;4325;42.520;27.448;2023-04-24T07:21:20;101063.72;;;16.00;100.00
8575;BME280;4325;42.520;27.448;2023-04-24T07:23:47;101053.72;;;16.04;100.00
8575;BME280;4325;42.520;27.448;2023-04-24T07:26:14;101054.31;;;16.01;100.00
8575;BME280;4325;42.520;27.448;2023-04-24T07:28:40;101051.56;;;16.01;100.00
8575;BME280;4325;42.520;27.448;2023-04-24T07:31:08;101043.72;;;16.08;100.00
8575;BME280;4325;42.520;27.448;2023-04-24T07:33:35;101054.75;;;16.08;100.00
8575;BME280;4325;42.520;27.448;2023-04-24T07:36:02;101048.84;;;16.14;100.00
8575;BME280;4325;42.520;27.448;2023-04-24T07:38:31;101053.03;;;16.12;100.00
8575;BME280;4325;42.520;27.448;2023-04-24T07:40:57;101051.31;;;16.16;100.00
8575;BME280;4325;42.520;27.448;2023-04-24T07:43:24;101061.06;;;16.27;100.00
8575;BME280;4325;42.520;27.448;2023-04-24T07:45:51;101058.16;;;16.37;100.00
8575;BME280;4325;42.520;27.448;2023-04-24T07:48:18;101057.13;;;16.65;100.00
8575;BME280;4325;42.520;27.448;2023-04-24T07:50:47;101064.03;;;17.08;100.00
8575;BME280;4325;42.520;27.448;2023-04-24T07:53:14;101053.75;;;17.50;99.43
8575;BME280;4325;42.520;27.448;2023-04-24T07:55:42;101058.31;;;17.95;91.61
8575;BME280;4325;42.520;27.448;2023-04-24T07:58:09;101055.13;;;18.77;89.43
8575;BME280;4325;42.520;27.448;2023-04-24T08:00:36;101060.72;;;19.90;78.52
8575;BME280;4325;42.520;27.448;2023-04-24T08:03:03;101063.47;;;21.22;67.11
8575;BME280;4325;42.520;27.448;2023-04-24T08:05:30;101056.44;;;22.69;59.48
8575;BME280;4325;42.520;27.448;2023-04-24T08:07:57;101049.34;;;24.87;51.04
8575;BME280;4325;42.520;27.448;2023-04-24T08:10:24;101051.38;;;27.52;43.39
8575;BME280;4325;42.520;27.448;2023-04-24T08:12:52;101054.94;;;29.04;37.11
8575;BME280;4325;42.520;27.448;2023-04-24T08:15:20;101058.19;;;30.19;35.35
8575;BME280;4325;42.520;27.448;2023-04-24T08:17:47;101051.19;;;31.62;32.66
8575;BME280;4325;42.520;27.448;2023-04-24T08:20:15;101055.47;;;33.03;30.60
8575;BME280;4325;42.520;27.448;2023-04-24T08:22:42;101049.38;;;33.52;28.90
8575;BME280;4325;42.520;27.448;2023-04-24T08:25:10;101048.78;;;34.73;27.81
8575;BME280;4325;42.520;27.448;2023-04-24T08:27:37;101051.25;;;35.90;26.89
8575;BME280;4325;42.520;27.448;2023-04-24T08:30:07;101052.31;;;36.19;25.22
8575;BME280;4325;42.520;27.448;2023-04-24T08:32:34;101048.59;;;36.78;24.30
8575;BME280;4325;42.520;27.448;2023-04-24T08:35:00;101050.63;;;36.97;24.14
8575;BME280;4325;42.520;27.448;2023-04-24T08:37:27;101045.72;;;36.78;23.45
8575;BME280;4325;42.520;27.448;2023-04-24T08:39:54;101040.31;;;36.83;23.61
8575;BME280;4325;42.520;27.448;2023-04-24T08:42:22;101038.63;;;37.66;22.87
8575;BME280;4325;42.520;27.448;2023-04-24T08:44:49;101038.69;;;38.08;22.04
8575;BME280;4325;42.520;27.448;2023-04-24T08:47:20;101037.50;;;37.93;21.80
8575;BME280;4325;42.520;27.448;2023-04-24T08:49:48;101033.44;;;38.48;21.12
8575;BME280;4325;42.520;27.448;2023-04-24T08:52:15;101031.13;;;39.31;20.69
8575;BME280;4325;42.520;27.448;2023-04-24T08:54:42;101027.03;;;39.66;19.98
8575;BME280;4325;42.520;27.448;2023-04-24T08:57:11;101024.34;;;39.84;20.10
8575;BME280;4325;42.520;27.448;2023-04-24T08:59:40;101032.19;;;40.36;20.13
8575;BME280;4325;42.520;27.448;2023-04-24T09:02:10;101023.16;;;41.08;19.59
8575;BME280;4325;42.520;27.448;2023-04-24T09:04:40;101021.75;;;40.82;18.79
8575;BME280;4325;42.520;27.448;2023-04-24T09:07:07;101014.47;;;40.07;19.06
8575;BME280;4325;42.520;27.448;2023-04-24T09:09:38;101019.53;;;39.81;19.26
8575;BME280;4325;42.520;27.448;2023-04-24T09:12:05;101016.25;;;39.70;19.53
8575;BME280;4325;42.520;27.448;2023-04-24T09:14:33;101002.88;;;40.10;19.82
8575;BME280;4325;42.520;27.448;2023-04-24T09:17:01;101005.22;;;40.95;19.13
8575;BME280;4325;42.520;27.448;2023-04-24T09:19:28;101012.69;;;41.32;19.24
8575;BME280;4325;42.520;27.448;2023-04-24T09:21:56;101009.72;;;41.05;19.00
8575;BME280;4325;42.520;27.448;2023-04-24T09:24:23;101012.75;;;40.09;19.49
8575;BME280;4325;42.520;27.448;2023-04-24T09:26:56;101010.56;;;40.44;19.86
8575;BME280;4325;42.520;27.448;2023-04-24T09:29:24;101010.63;;;41.42;19.72
8575;BME280;4325;42.520;27.448;2023-04-24T09:31:51;100996.44;;;41.84;18.62
8575;BME280;4325;42.520;27.448;2023-04-24T09:34:21;100997.19;;;42.02;18.58
8575;BME280;4325;42.520;27.448;2023-04-24T09:36:49;100993.47;;;42.29;19.03
8575;BME280;4325;42.520;27.448;2023-04-24T09:39:18;100994.16;;;41.52;18.93
8575;BME280;4325;42.520;27.448;2023-04-24T09:41:47;100990.34;;;41.91;19.19
8575;BME280;4325;42.520;27.448;2023-04-24T09:44:15;100994.38;;;42.44;18.71
8575;BME280;4325;42.520;27.448;2023-04-24T09:46:43;100994.28;;;43.04;18.36
8575;BME280;4325;42.520;27.448;2023-04-24T09:49:12;100988.34;;;43.55;17.37
8575;BME280;4325;42.520;27.448;2023-04-24T09:51:39;100990.91;;;42.31;17.94
8575;BME280;4325;42.520;27.448;2023-04-24T09:54:14;100978.25;;;40.93;19.09
8575;BME280;4325;42.520;27.448;2023-04-24T09:56:44;100979.97;;;40.50;19.46
8575;BME280;4325;42.520;27.448;2023-04-24T09:59:12;100967.91;;;41.04;19.28
8575;BME280;4325;42.520;27.448;2023-04-24T10:01:39;100958.06;;;41.41;18.39
8575;BME280;4325;42.520;27.448;2023-04-24T10:04:19;100955.19;;;41.69;18.32
8575;BME280;4325;42.520;27.448;2023-04-24T10:06:47;100956.66;;;42.42;18.15
8575;BME280;4325;42.520;27.448;2023-04-24T10:09:15;100958.78;;;42.65;17.23
8575;BME280;4325;42.520;27.448;2023-04-24T10:11:45;100957.88;;;41.27;17.29
8575;BME280;4325;42.520;27.448;2023-04-24T10:14:13;100955.28;;;40.53;18.39
8575;BME280;4325;42.520;27.448;2023-04-24T10:16:41;100961.53;;;40.60;18.83
8575;BME280;4325;42.520;27.448;2023-04-24T10:19:09;100946.84;;;40.98;18.45
8575;BME280;4325;42.520;27.448;2023-04-24T10:21:40;100941.78;;;41.29;18.54
8575;BME280;4325;42.520;27.448;2023-04-24T10:24:08;100943.81;;;41.20;17.53
8575;BME280;4325;42.520;27.448;2023-04-24T10:26:35;100941.66;;;41.69;17.66
8575;BME280;4325;42.520;27.448;2023-04-24T10:29:05;100935.53;;;41.85;17.13
8575;BME280;4325;42.520;27.448;2023-04-24T10:31:36;100934.50;;;42.25;17.09
8575;BME280;4325;42.520;27.448;2023-04-24T10:34:04;100929.19;;;42.32;16.54
8575;BME280;4325;42.520;27.448;2023-04-24T10:36:31;100928.94;;;43.34;16.15
8575;BME280;4325;42.520;27.448;2023-04-24T10:39:02;100937.41;;;44.20;15.53
8575;BME280;4325;42.520;27.448;2023-04-24T10:41:30;100931.75;;;44.60;14.83
8575;BME280;4325;42.520;27.448;2023-04-24T10:44:05;100932.75;;;44.57;14.62
8575;BME280;4325;42.520;27.448;2023-04-24T10:46:33;100926.25;;;41.90;15.91
8575;BME280;4325;42.520;27.448;2023-04-24T10:49:03;100925.59;;;40.96;16.65
8575;BME280;4325;42.520;27.448;2023-04-24T10:51:47;100928.09;;;38.80;16.86
8575;BME280;4325;42.520;27.448;2023-04-24T10:54:25;100932.47;;;38.72;17.81
8575;BME280;4325;42.520;27.448;2023-04-24T10:56:52;100921.13;;;38.81;17.86
8575;BME280;4325;42.520;27.448;2023-04-24T10:59:28;100922.94;;;38.88;17.48
8575;BME280;4325;42.520;27.448;2023-04-24T11:02:02;100919.91;;;39.17;17.41
8575;BME280;4325;42.520;27.448;2023-04-24T11:04:30;100917.84;;;40.26;16.60
8575;BME280;4325;42.520;27.448;2023-04-24T11:06:57;100911.41;;;41.56;16.74
8575;BME280;4325;42.520;27.448;2023-04-24T11:09:27;100905.63;;;42.76;15.66
8575;BME280;4325;42.520;27.448;2023-04-24T11:12:03;100913.25;;;43.64;14.67
8575;BME280;4325;42.520;27.448;2023-04-24T11:14:59;100904.16;;;43.04;14.68
8575;BME280;4325;42.520;27.448;2023-04-24T11:17:30;100896.78;;;44.09;14.92
8575;BME280;4325;42.520;27.448;2023-04-24T11:20:01;100897.72;;;45.25;14.41
8575;BME280;4325;42.520;27.448;2023-04-24T11:22:30;100911.41;;;45.50;14.22
8575;BME280;4325;42.520;27.448;2023-04-24T11:25:00;100901.84;;;46.21;14.11
8575;BME280;4325;42.520;27.448;2023-04-24T11:27:30;100900.63;;;46.70;13.60
8575;BME280;4325;42.520;27.448;2023-04-24T11:30:03;100891.06;;;47.06;13.49
8575;BME280;4325;42.520;27.448;2023-04-24T11:32:34;100893.38;;;47.66;13.49
8575;BME280;4325;42.520;27.448;2023-04-24T11:35:03;100884.75;;;48.16;12.86
8575;BME280;4325;42.520;27.448;2023-04-24T11:37:34;100889.22;;;47.90;12.75
8575;BME280;4325;42.520;27.448;2023-04-24T11:40:03;100886.81;;;47.88;12.78
8575;BME280;4325;42.520;27.448;2023-04-24T11:42:34;100878.13;;;47.94;12.31
8575;BME280;4325;42.520;27.448;2023-04-24T11:45:07;100886.53;;;47.69;12.24
8575;BME280;4325;42.520;27.448;2023-04-24T11:47:34;100872.06;;;47.05;12.63
8575;BME280;4325;42.520;27.448;2023-04-24T11:50:03;100873.53;;;46.73;12.84
8575;BME280;4325;42.520;27.448;2023-04-24T11:52:30;100859.84;;;46.79;12.60
8575;BME280;4325;42.520;27.448;2023-04-24T11:54:57;100864.75;;;47.15;12.73
8575;BME280;4325;42.520;27.448;2023-04-24T11:57:25;100855.06;;;47.29;12.80
8575;BME280;4325;42.520;27.448;2023-04-24T11:59:54;100855.28;;;47.15;12.61
8575;BME280;4325;42.520;27.448;2023-04-24T12:02:23;100848.66;;;47.08;12.60
8575;BME280;4325;42.520;27.448;2023-04-24T12:04:51;100834.19;;;47.14;12.65
8575;BME280;4325;42.520;27.448;2023-04-24T12:07:18;100836.97;;;46.86;12.86
8575;BME280;4325;42.520;27.448;2023-04-24T12:09:46;100834.50;;;46.26;13.45
8575;BME280;4325;42.520;27.448;2023-04-24T12:12:14;100833.34;;;45.81;13.54
8575;BME280;4325;42.520;27.448;2023-04-24T12:14:43;100833.72;;;45.63;13.25
8575;BME280;4325;42.520;27.448;2023-04-24T12:17:10;100825.19;;;45.28;13.19
8575;BME280;4325;42.520;27.448;2023-04-24T12:19:45;100817.22;;;44.57;13.72
8575;BME280;4325;42.520;27.448;2023-04-24T12:22:12;100825.63;;;42.70;14.57
8575;BME280;4325;42.520;27.448;2023-04-24T12:24:57;100806.69;;;41.11;15.90
8575;BME280;4325;42.520;27.448;2023-04-24T12:27:24;100811.75;;;40.53;16.33
8575;BME280;4325;42.520;27.448;2023-04-24T12:29:52;100803.13;;;40.53;16.60
8575;BME280;4325;42.520;27.448;2023-04-24T12:32:20;100811.50;;;39.89;16.76
8575;BME280;4325;42.520;27.448;2023-04-24T12:34:49;100798.34;;;38.24;17.98
8575;BME280;4325;42.520;27.448;2023-04-24T12:37:16;100795.72;;;37.25;19.04
8575;BME280;4325;42.520;27.448;2023-04-24T12:39:57;100797.09;;;35.40;20.71
8575;BME280;4325;42.520;27.448;2023-04-24T12:42:26;100787.13;;;33.69;22.30
8575;BME280;4325;42.520;27.448;2023-04-24T12:44:56;100786.28;;;32.23;23.79
8575;BME280;4325;42.520;27.448;2023-04-24T12:47:25;100788.44;;;31.32;25.27
8575;BME280;4325;42.520;27.448;2023-04-24T12:49:53;100778.16;;;30.59;26.62
8575;BME280;4325;42.520;27.448;2023-04-24T12:52:21;100778.13;;;30.31;27.12
8575;BME280;4325;42.520;27.448;2023-04-24T12:54:49;100776.13;;;30.14;27.59
8575;BME280;4325;42.520;27.448;2023-04-24T12:57:16;100776.81;;;29.58;28.71
8575;BME280;4325;42.520;27.448;2023-04-24T12:59:43;100777.88;;;29.14;29.43
8575;BME280;4325;42.520;27.448;2023-04-24T13:02:11;100772.00;;;28.68;30.47